Terminal Aerodrome Forecast
Issued by NWS Spokane, WA

Home | Current Version | Previous Version | Text Only | Print | Product List | Glossary On
Versions: 1 2 3 4 5 6 7 8 9 10 11 12 13 14 15
000
FTUS46 KOTX 272320
TAFGEG
TAF
KGEG 272320Z 2800/2824 23014G22KT P6SM VCSH SCT050 BKN080 BKN100
     FM280300 20008KT P6SM SCT060 BKN080 BKN120
     FM280700 18007KT P6SM FEW060 SCT150
     FM281200 19009KT P6SM SCT050 BKN250
     FM281900 21010G15KT P6SM SCT040 BKN090=

USA.gov is the U.S. government's official web portal to all federal, state and local government web resources and services.